Observation data for Seminole on 06/24/2019      Previous  Date       Current Mesonet Observations  Soil Data  Daily Summary Page  Observations in Plain Language
KSM1 240500Z 33003KT 22/04 A299 RMK A01 T02190042  RH  032%=      5-min Rain = 0
KSM1 240505Z 33004KT 22/04 A299 RMK A01 T02230042  RH  031%=      5-min Rain = 0
KSM1 240510Z 33005KT 22/05 A299 RMK A01 T02160048  RH  034%=      5-min Rain = 0
KSM1 240515Z 32005KT 22/04 A299 RMK A01 T02150037  RH  032%=      5-min Rain = 0
KSM1 240520Z 32005KT 22/04 A2991 RMK A01 T02190040  RH  032%=      5-min Rain = 0
KSM1 240525Z 33003KT 22/05 A2991 RMK A01 T02190045  RH  033%=      5-min Rain = 0
KSM1 240530Z 16003KT 21/05 A2991 RMK A01 T02090050  RH  036%=      5-min Rain = 0
KSM1 240535Z 09002KT 20/05 A2991 RMK A01 T02020045  RH  036%=      5-min Rain = 0
KSM1 240540Z 12003KT 21/04 A2991 RMK A01 T02060039  RH  034%=      5-min Rain = 0
KSM1 240545Z 14003KT 21/04 A2991 RMK A01 T02080040  RH  034%=      5-min Rain = 0
KSM1 240550Z 14003KT 21/04 A2991 RMK A01 T02070041  RH  034%=      5-min Rain = 0
KSM1 240555Z 15003KT 20/04 A2991 RMK A01 T02040044  RH  036%=      5-min Rain = 0
KSM1 240600Z 14004KT 21/05 A2991 RMK A01 T02050046  RH  036%=      5-min Rain = 0
KSM1 240605Z 18005KT 20/05 A2991 RMK A01 T02000052  RH  039%=      5-min Rain = 0
KSM1 240610Z 18004KT 20/05 A2991 RMK A01 T01970051  RH  039%=      5-min Rain = 0
KSM1 240615Z 17003KT 19/06 A2991 RMK A01 T01940057  RH  042%=      5-min Rain = 0
KSM1 240620Z 16003KT 19/06 A2991 RMK A01 T01890058  RH  043%=      5-min Rain = 0
KSM1 240625Z 17003KT 19/05 A2991 RMK A01 T01870053  RH  042%=      5-min Rain = 0
KSM1 240630Z 18002KT 19/05 A2991 RMK A01 T01920046  RH  039%=      5-min Rain = 0
KSM1 240635Z 18001KT 20/06 A2991 RMK A01 T01950056  RH  041%=      5-min Rain = 0
KSM1 240640Z 18002KT 20/06 A2991 RMK A01 T01950058  RH  042%=      5-min Rain = 0
KSM1 240645Z 18000KT 20/06 A2991 RMK A01 T01980059  RH  041%=      5-min Rain = 0
KSM1 240650Z 03003KT 19/06 A2991 RMK A01 T01890060  RH  044%=      5-min Rain = 0
KSM1 240655Z 01007KT 19/05 A2991 RMK A01 T01880051  RH  041%=      5-min Rain = 0
KSM1 240700Z 02007KT 19/05 A2991 RMK A01 T01930053  RH  041%=      5-min Rain = 0
KSM1 240705Z 34004KT 19/06 A2991 RMK A01 T01930060  RH  043%=      5-min Rain = 0
KSM1 240710Z 36002KT 20/06 A2991 RMK A01 T01960060  RH  042%=      5-min Rain = 0
KSM1 240715Z 24001KT 20/06 A2991 RMK A01 T02010059  RH  040%=      5-min Rain = 0
KSM1 240720Z 22002KT 20/06 A2991 RMK A01 T01960061  RH  042%=      5-min Rain = 0
KSM1 240725Z 27003KT 20/06 A2991 RMK A01 T01980056  RH  040%=      5-min Rain = 0
KSM1 240730Z 28002KT 20/06 A2991 RMK A01 T01980056  RH  040%=      5-min Rain = 0
KSM1 240735Z 28001KT 19/06 A2991 RMK A01 T01930058  RH  042%=      5-min Rain = 0
KSM1 240740Z 28002KT 19/06 A299 RMK A01 T01900060  RH  044%=      5-min Rain = 0
KSM1 240745Z 28003KT 19/06 A299 RMK A01 T01890062  RH  045%=      5-min Rain = 0
KSM1 240750Z 29004KT 19/06 A299 RMK A01 T01850063  RH  046%=      5-min Rain = 0
KSM1 240755Z 29004KT 19/07 A299 RMK A01 T01850066  RH  047%=      5-min Rain = 0
KSM1 240800Z 30004KT 18/07 A299 RMK A01 T01800068  RH  049%=      5-min Rain = 0
KSM1 240805Z 30005KT 18/07 A299 RMK A01 T01800067  RH  049%=      5-min Rain = 0
KSM1 240810Z 33005KT 17/07 A2991 RMK A01 T01710066  RH  051%=      5-min Rain = 0
KSM1 240815Z 36007KT 17/06 A2991 RMK A01 T01660061  RH  051%=      5-min Rain = 0
KSM1 240820Z 01008KT 17/06 A2991 RMK A01 T01680057  RH  049%=      5-min Rain = 0
KSM1 240825Z 01008KT 17/05 A2991 RMK A01 T01730054  RH  047%=      5-min Rain = 0
KSM1 240830Z 05008KT 18/06 A2991 RMK A01 T01760056  RH  046%=      5-min Rain = 0
KSM1 240835Z 08007KT 17/06 A2991 RMK A01 T01730059  RH  048%=      5-min Rain = 0
KSM1 240840Z 07002KT 17/06 A2991 RMK A01 T01720057  RH  048%=      5-min Rain = 0
KSM1 240845Z 11001KT 17/06 A2991 RMK A01 T01730057  RH  048%=      5-min Rain = 0
KSM1 240850Z 12001KT 18/06 A2991 RMK A01 T01750058  RH  047%=      5-min Rain = 0
KSM1 240855Z 03001KT 18/06 A2991 RMK A01 T01760060  RH  048%=      5-min Rain = 0
KSM1 240900Z 01005KT 16/06 A2991 RMK A01 T01630061  RH  052%=      5-min Rain = 0
KSM1 240905Z 03005KT 16/06 A2991 RMK A01 T01610060  RH  052%=      5-min Rain = 0
KSM1 240910Z 02006KT 16/06 A2991 RMK A01 T01640056  RH  050%=      5-min Rain = 0
KSM1 240915Z 02005KT 17/05 A2991 RMK A01 T01670054  RH  048%=      5-min Rain = 0
KSM1 240920Z 00006KT 17/06 A2991 RMK A01 T01680057  RH  049%=      5-min Rain = 0
KSM1 240925Z 00006KT 17/06 A2991 RMK A01 T01660057  RH  050%=      5-min Rain = 0
KSM1 240930Z 02009KT 16/06 A2992 RMK A01 T01620059  RH  051%=      5-min Rain = 0
KSM1 240935Z 02009KT 16/06 A2992 RMK A01 T01640058  RH  051%=      5-min Rain = 0
KSM1 240940Z 03009KT 17/06 A2992 RMK A01 T01650064  RH  053%=      5-min Rain = 0
KSM1 240945Z 03010KT 17/08 A2992 RMK A01 T01690077  RH  056%=      5-min Rain = 0
KSM1 240950Z 04008KT 17/09 A2992 RMK A01 T01710089  RH  060%=      5-min Rain = 0
KSM1 240955Z 05007KT 17/10 A2992 RMK A01 T01720100  RH  065%=      5-min Rain = 0
KSM1 241000Z 05007KT 17/11 A2992 RMK A01 T01720109  RH  069%=      5-min Rain = 0
KSM1 241005Z 05008KT 17/12 A2992 RMK A01 T01740115  RH  071%=      5-min Rain = 0
KSM1 241010Z 05008KT 17/12 A2992 RMK A01 T01740118  RH  072%=      5-min Rain = 0
KSM1 241015Z 04008KT 18/12 A2992 RMK A01 T01750122  RH  074%=      5-min Rain = 0
KSM1 241020Z 04008KT 18/12 A2992 RMK A01 T01750124  RH  075%=      5-min Rain = 0
KSM1 241025Z 03009KT 18/13 A2992 RMK A01 T01760127  RH  076%=      5-min Rain = 0
KSM1 241030Z 04008KT 18/13 A2992 RMK A01 T01750127  RH  077%=      5-min Rain = 0
KSM1 241035Z 03010KT 18/13 A2993 RMK A01 T01760129  RH  077%=      5-min Rain = 0
KSM1 241040Z 04009KT 18/13 A2992 RMK A01 T01760130  RH  078%=      5-min Rain = 0
KSM1 241045Z 04009KT 18/13 A2993 RMK A01 T01760133  RH  079%=      5-min Rain = 0
KSM1 241050Z 04009KT 18/14 A2993 RMK A01 T01770136  RH  080%=      5-min Rain = 0
KSM1 241055Z 04009KT 18/14 A2993 RMK A01 T01780139  RH  081%=      5-min Rain = 0
KSM1 241100Z 04009KT 18/14 A2993 RMK A01 T01790141  RH  082%=      5-min Rain = 0
KSM1 241105Z 04009KT 18/14 A2993 RMK A01 T01800142  RH  082%=      5-min Rain = 0
KSM1 241110Z 04009KT 18/14 A2993 RMK A01 T01800142  RH  082%=      5-min Rain = 0
KSM1 241115Z 04009KT 18/14 A2993 RMK A01 T01790143  RH  083%=      5-min Rain = 0
KSM1 241120Z 04009KT 18/14 A2994 RMK A01 T01780144  RH  084%=      5-min Rain = 0
KSM1 241125Z 04009KT 18/14 A2994 RMK A01 T01790144  RH  084%=      5-min Rain = 0
KSM1 241130Z 04009KT 18/15 A2994 RMK A01 T01790145  RH  084%=      5-min Rain = 0
KSM1 241135Z 04009KT 18/15 A2995 RMK A01 T01790145  RH  084%=      5-min Rain = 0
KSM1 241140Z 04009KT 18/15 A2995 RMK A01 T01790146  RH  084%=      5-min Rain = 0
KSM1 241145Z 05009KT 18/15 A2996 RMK A01 T01790146  RH  085%=      5-min Rain = 0
KSM1 241150Z 08008KT 18/15 A2998 RMK A01 T01790146  RH  085%=      5-min Rain = 0
KSM1 241155Z 06006KT 18/15 A2997 RMK A01 T01780146  RH  086%=      5-min Rain = 0
KSM1 241200Z 07007KT 18/15 A2997 RMK A01 T01780147  RH  086%=      5-min Rain = 0
KSM1 241205Z 05008KT 18/15 A2997 RMK A01 T01780147  RH  086%=      5-min Rain = 0
KSM1 241210Z 05007KT 18/15 A2997 RMK A01 T01790148  RH  086%=      5-min Rain = 0
KSM1 241215Z 06007KT 18/15 A2998 RMK A01 T01800149  RH  086%=      5-min Rain = 0
KSM1 241220Z 04007KT 18/15 A2997 RMK A01 T01810149  RH  085%=      5-min Rain = 0
KSM1 241225Z 05007KT 18/15 A2998 RMK A01 T01820150  RH  085%=      5-min Rain = 0
KSM1 241230Z 05006KT 18/15 A2998 RMK A01 T01840150  RH  084%=      5-min Rain = 0
KSM1 241235Z 05007KT 19/15 A2998 RMK A01 T01870151  RH  083%=      5-min Rain = 0
KSM1 241240Z 06007KT 19/15 A2999 RMK A01 T01890152  RH  083%=      5-min Rain = 0
KSM1 241245Z 06008KT 19/15 A2998 RMK A01 T01910152  RH  082%=      5-min Rain = 0
KSM1 241250Z 06010KT 19/15 A2998 RMK A01 T01930153  RH  081%=      5-min Rain = 0
KSM1 241255Z 07011KT 20/15 A2998 RMK A01 T01950154  RH  081%=      5-min Rain = 0
KSM1 241300Z 06011KT 20/15 A2998 RMK A01 T01970154  RH  080%=      5-min Rain = 0
KSM1 241305Z 06011KT 20/16 A2999 RMK A01 T01990155  RH  079%=      5-min Rain = 0
KSM1 241310Z 06011KT 20/16 A2999 RMK A01 T02010156  RH  079%=      5-min Rain = 0
KSM1 241315Z 07013KT 20/16 A2999 RMK A01 T02030157  RH  078%=      5-min Rain = 0
KSM1 241320Z 07013G18KT 21/16 A2999 RMK A01 T02050158  RH  078%=      5-min Rain = 0
KSM1 241325Z 06013KT 21/16 A2999 RMK A01 T02080159  RH  077%=      5-min Rain = 0
KSM1 241330Z 06014KT 21/16 A2999 RMK A01 T02090160  RH  077%=      5-min Rain = 0
KSM1 241335Z 06015KT 21/16 A2999 RMK A01 T02100160  RH  077%=      5-min Rain = 0
KSM1 241340Z 06015KT 21/16 A2999 RMK A01 T02120161  RH  076%=      5-min Rain = 0
KSM1 241345Z 07015G20KT 21/16 A2999 RMK A01 T02140161  RH  075%=      5-min Rain = 0
KSM1 241350Z 07017KT 21/16 A2999 RMK A01 T02140161  RH  075%=      5-min Rain = 0
KSM1 241355Z 06013G18KT 22/16 A2999 RMK A01 T02160161  RH  074%=      5-min Rain = 0
KSM1 241400Z 06014KT 22/16 A2999 RMK A01 T02190161  RH  073%=      5-min Rain = 0
KSM1 241405Z 06014KT 22/16 A30 RMK A01 T02210161  RH  072%=      5-min Rain = 0
KSM1 241410Z 06014G20KT 22/16 A30 RMK A01 T02230161  RH  071%=      5-min Rain = 0
KSM1 241415Z 06015KT 22/16 A30 RMK A01 T02240161  RH  071%=      5-min Rain = 0
KSM1 241420Z 06015KT 23/16 A30 RMK A01 T02250161  RH  071%=      5-min Rain = 0
KSM1 241425Z 07014G19KT 23/16 A30 RMK A01 T02270162  RH  070%=      5-min Rain = 0
KSM1 241430Z 07014G19KT 23/16 A3001 RMK A01 T02280162  RH  070%=      5-min Rain = 0
KSM1 241435Z 07014KT 23/16 A3001 RMK A01 T02290162  RH  069%=      5-min Rain = 0
KSM1 241440Z 06012G17KT 23/16 A3001 RMK A01 T02330163  RH  068%=      5-min Rain = 0
KSM1 241445Z 06013KT 23/16 A3001 RMK A01 T02340164  RH  068%=      5-min Rain = 0
KSM1 241450Z 07012KT 24/17 A3001 RMK A01 T02380165  RH  067%=      5-min Rain = 0
KSM1 241455Z 07013KT 24/17 A3001 RMK A01 T02390165  RH  066%=      5-min Rain = 0
KSM1 241500Z 07015G21KT 24/17 A3001 RMK A01 T02380165  RH  067%=      5-min Rain = 0
KSM1 241505Z 08013KT 24/16 A3001 RMK A01 T02380164  RH  067%=      5-min Rain = 0
KSM1 241510Z 08014KT 24/17 A3001 RMK A01 T02390165  RH  066%=      5-min Rain = 0
KSM1 241515Z 07013KT 24/17 A3001 RMK A01 T02410165  RH  066%=      5-min Rain = 0
KSM1 241520Z 07012KT 24/17 A3001 RMK A01 T02420166  RH  066%=      5-min Rain = 0
KSM1 241525Z 07012KT 25/17 A3001 RMK A01 T02450166  RH  065%=      5-min Rain = 0
KSM1 241530Z 08011KT 25/17 A3001 RMK A01 T02470166  RH  064%=      5-min Rain = 0
KSM1 241535Z 08011KT 25/17 A3001 RMK A01 T02450165  RH  064%=      5-min Rain = 0
KSM1 241540Z 07009G18KT 25/17 A3001 RMK A01 T02480166  RH  063%=      5-min Rain = 0
KSM1 241545Z 08010KT 25/17 A3001 RMK A01 T02500166  RH  062%=      5-min Rain = 0
KSM1 241550Z 07011KT 25/17 A30 RMK A01 T02510166  RH  062%=      5-min Rain = 0
KSM1 241555Z 08010KT 25/17 A30 RMK A01 T02520166  RH  062%=      5-min Rain = 0
KSM1 241600Z 08010KT 26/17 A30 RMK A01 T02550166  RH  061%=      5-min Rain = 0
KSM1 241605Z 07010KT 26/17 A30 RMK A01 T02580166  RH  059%=      5-min Rain = 0
KSM1 241610Z 09011KT 26/16 A30 RMK A01 T02560164  RH  060%=      5-min Rain = 0
KSM1 241615Z 08009KT 26/17 A30 RMK A01 T02600166  RH  059%=      5-min Rain = 0
KSM1 241620Z 07009G15KT 26/17 A30 RMK A01 T02600167  RH  059%=      5-min Rain = 0
KSM1 241625Z 09009KT 26/16 A30 RMK A01 T02610164  RH  058%=      5-min Rain = 0
KSM1 241630Z 07009G15KT 27/17 A30 RMK A01 T02650166  RH  057%=      5-min Rain = 0
KSM1 241635Z 07009KT 27/16 A30 RMK A01 T02670164  RH  056%=      5-min Rain = 0
KSM1 241640Z 07010KT 27/16 A30 RMK A01 T02670163  RH  055%=      5-min Rain = 0
KSM1 241645Z 09010KT 27/16 A30 RMK A01 T02700163  RH  055%=      5-min Rain = 0
KSM1 241650Z 07009G14KT 27/16 A30 RMK A01 T02700161  RH  054%=      5-min Rain = 0
KSM1 241655Z 07008KT 27/16 A30 RMK A01 T02710160  RH  053%=      5-min Rain = 0
KSM1 241700Z 08010KT 27/16 A30 RMK A01 T02740162  RH  053%=      5-min Rain = 0
KSM1 241705Z 07010KT 28/16 A30 RMK A01 T02760164  RH  053%=      5-min Rain = 0
KSM1 241710Z 09010KT 28/16 A30 RMK A01 T02770161  RH  052%=      5-min Rain = 0
KSM1 241715Z 09009G14KT 28/16 A30 RMK A01 T02770159  RH  051%=      5-min Rain = 0
KSM1 241720Z 10009G16KT 28/16 A30 RMK A01 T02780161  RH  051%=      5-min Rain = 0
KSM1 241725Z 09010G15KT 28/16 A30 RMK A01 T02810160  RH  050%=      5-min Rain = 0
KSM1 241730Z 08010KT 28/16 A30 RMK A01 T02830155  RH  048%=      5-min Rain = 0
KSM1 241735Z 08008G13KT 28/15 A30 RMK A01 T02820152  RH  047%=      5-min Rain = 0
KSM1 241740Z 06008KT 28/16 A30 RMK A01 T02820156  RH  048%=      5-min Rain = 0
KSM1 241745Z 09008G13KT 28/16 A30 RMK A01 T02840156  RH  048%=      5-min Rain = 0
KSM1 241750Z 09007G13KT 29/15 A2999 RMK A01 T02890154  RH  046%=      5-min Rain = 0
KSM1 241755Z 08009G14KT 29/15 A2999 RMK A01 T02870153  RH  046%=      5-min Rain = 0
KSM1 241805Z 06008KT 29/15 A2999 RMK A01 T02930152  RH  044%=      5-min Rain = 0
KSM1 241810Z 07009KT 30/15 A2999 RMK A01 T02970151  RH  043%=      5-min Rain = 0
KSM1 241815Z 09005KT 29/15 A2999 RMK A01 T02930148  RH  043%=      5-min Rain = 0
KSM1 241820Z 12006KT 30/15 A2999 RMK A01 T02960148  RH  042%=      5-min Rain = 0
KSM1 241825Z 11004KT 30/15 A2999 RMK A01 T03010145  RH  040%=      5-min Rain = 0
KSM1 241830Z 11005G11KT 30/15 A2999 RMK A01 T03020148  RH  041%=      5-min Rain = 0
KSM1 241835Z 07006KT 30/15 A2998 RMK A01 T03040150  RH  041%=      5-min Rain = 0
KSM1 241840Z 08007KT 30/15 A2998 RMK A01 T03010151  RH  042%=      5-min Rain = 0
KSM1 241845Z 06005KT 30/15 A2998 RMK A01 T03020148  RH  041%=      5-min Rain = 0
KSM1 241850Z 07004KT 30/15 A2998 RMK A01 T03020145  RH  040%=      5-min Rain = 0
KSM1 241855Z 10008KT 30/15 A2998 RMK A01 T03040146  RH  040%=      5-min Rain = 0
KSM1 241900Z 10004G9KT 31/15 A2997 RMK A01 T03050147  RH  040%=      5-min Rain = 0
KSM1 241905Z 08007G12KT 31/15 A2997 RMK A01 T03070150  RH  040%=      5-min Rain = 0
KSM1 241910Z 08005KT 31/15 A2997 RMK A01 T03060146  RH  040%=      5-min Rain = 0
KSM1 241915Z 11003KT 31/14 A2997 RMK A01 T03070140  RH  038%=      5-min Rain = 0
KSM1 241920Z 07008G14KT 31/15 A2996 RMK A01 T03090148  RH  039%=      5-min Rain = 0
KSM1 241925Z 09005KT 31/15 A2996 RMK A01 T03110145  RH  038%=      5-min Rain = 0
KSM1 241930Z 11005KT 32/14 A2996 RMK A01 T03160140  RH  036%=      5-min Rain = 0
KSM1 241935Z 10007G13KT 32/14 A2996 RMK A01 T03170140  RH  036%=      5-min Rain = 0
KSM1 241940Z 09008KT 32/13 A2995 RMK A01 T03180132  RH  034%=      5-min Rain = 0
KSM1 241945Z 08008KT 32/13 A2995 RMK A01 T03190133  RH  034%=      5-min Rain = 0
KSM1 241950Z 12004G11KT 32/14 A2995 RMK A01 T03190135  RH  034%=      5-min Rain = 0
KSM1 241955Z 09006G11KT 32/13 A2995 RMK A01 T03210132  RH  033%=      5-min Rain = 0
KSM1 242000Z 12008G13KT 32/12 A2995 RMK A01 T03210123  RH  031%=      5-min Rain = 0
KSM1 242005Z 15007G12KT 32/12 A2995 RMK A01 T03220123  RH  031%=      5-min Rain = 0
KSM1 242010Z 14003KT 33/12 A2994 RMK A01 T03250121  RH  030%=      5-min Rain = 0
KSM1 242015Z 11003G8KT 33/12 A2994 RMK A01 T03260119  RH  029%=      5-min Rain = 0
KSM1 242020Z 12007G13KT 33/13 A2994 RMK A01 T03260129  RH  032%=      5-min Rain = 0
KSM1 242025Z 09004KT 33/13 A2994 RMK A01 T03250127  RH  031%=      5-min Rain = 0
KSM1 242030Z 10005G14KT 33/13 A2994 RMK A01 T03250125  RH  031%=      5-min Rain = 0
KSM1 242035Z 12002KT 33/12 A2993 RMK A01 T03270121  RH  030%=      5-min Rain = 0
KSM1 242040Z 12004KT 33/12 A2993 RMK A01 T03280120  RH  029%=      5-min Rain = 0
KSM1 242045Z 14004KT 33/12 A2993 RMK A01 T03300117  RH  028%=      5-min Rain = 0
KSM1 242050Z 11003G12KT 33/12 A2993 RMK A01 T03320121  RH  029%=      5-min Rain = 0
KSM1 242055Z 08008KT 34/13 A2992 RMK A01 T03380125  RH  029%=      5-min Rain = 0
KSM1 242100Z 05006KT 33/12 A2992 RMK A01 T03320119  RH  029%=      5-min Rain = 0
KSM1 242105Z 05007KT 33/12 A2992 RMK A01 T03340115  RH  027%=      5-min Rain = 0
KSM1 242110Z 06007KT 34/11 A2991 RMK A01 T03350114  RH  027%=      5-min Rain = 0
KSM1 242115Z 06007KT 33/11 A2991 RMK A01 T03320113  RH  027%=      5-min Rain = 0
KSM1 242120Z 06006G11KT 33/11 A2991 RMK A01 T03300110  RH  027%=      5-min Rain = 0
KSM1 242125Z 16003KT 32/11 A2991 RMK A01 T03240109  RH  028%=      5-min Rain = 0
KSM1 242130Z 18004KT 33/11 A2991 RMK A01 T03250109  RH  028%=      5-min Rain = 0
KSM1 242135Z 11002KT 33/10 A2991 RMK A01 T03290103  RH  026%=      5-min Rain = 0
KSM1 242140Z 29003KT 33/10 A299 RMK A01 T03280103  RH  026%=      5-min Rain = 0
KSM1 242145Z 32003KT 33/10 A299 RMK A01 T03330103  RH  025%=      5-min Rain = 0
KSM1 242150Z 32002KT 33/10 A299 RMK A01 T03280104  RH  026%=      5-min Rain = 0
KSM1 242155Z 10001KT 33/10 A299 RMK A01 T03310102  RH  025%=      5-min Rain = 0
KSM1 242200Z 16002KT 34/10 A299 RMK A01 T03400102  RH  024%=      5-min Rain = 0
KSM1 242205Z 14005KT 34/10 A2989 RMK A01 T03440104  RH  024%=      5-min Rain = 0
KSM1 242210Z 11003KT 34/10 A2989 RMK A01 T03420099  RH  023%=      5-min Rain = 0
KSM1 242215Z 13004KT 34/10 A2989 RMK A01 T03380098  RH  024%=      5-min Rain = 0
KSM1 242220Z 14012KT 34/11 A2989 RMK A01 T03390105  RH  025%=      5-min Rain = 0
KSM1 242225Z 13013KT 33/11 A2988 RMK A01 T03300105  RH  026%=      5-min Rain = 0
KSM1 242230Z 13011KT 33/10 A2988 RMK A01 T03250099  RH  026%=      5-min Rain = 0
KSM1 242235Z 13008KT 33/10 A2988 RMK A01 T03250100  RH  026%=      5-min Rain = 0
KSM1 242240Z 13006KT 33/10 A2988 RMK A01 T03280102  RH  026%=      5-min Rain = 0
KSM1 242245Z 14004KT 33/10 A2988 RMK A01 T03260100  RH  026%=      5-min Rain = 0
KSM1 242250Z 11006KT 33/10 A2987 RMK A01 T03340102  RH  025%=      5-min Rain = 0
KSM1 242255Z 10005KT 34/10 A2987 RMK A01 T03350099  RH  024%=      5-min Rain = 0
KSM1 242300Z 10005KT 33/10 A2987 RMK A01 T03310100  RH  025%=      5-min Rain = 0
KSM1 242305Z 11004KT 33/10 A2987 RMK A01 T03280098  RH  025%=      5-min Rain = 0
KSM1 242310Z 09005KT 33/10 A2987 RMK A01 T03250099  RH  026%=      5-min Rain = 0
KSM1 242315Z 10005KT 32/10 A2986 RMK A01 T03220100  RH  026%=      5-min Rain = 0
KSM1 242320Z 09006KT 32/10 A2986 RMK A01 T03210102  RH  027%=      5-min Rain = 0
KSM1 242325Z 09005KT 32/10 A2986 RMK A01 T03240100  RH  026%=      5-min Rain = 0
KSM1 242330Z 07005KT 32/10 A2985 RMK A01 T03200103  RH  027%=      5-min Rain = 0
KSM1 242335Z 05004KT 32/10 A2985 RMK A01 T03160103  RH  028%=      5-min Rain = 0
KSM1 242340Z 06003KT 32/10 A2986 RMK A01 T03220099  RH  026%=      5-min Rain = 0
KSM1 242345Z 08006KT 33/11 A2985 RMK A01 T03270105  RH  027%=      5-min Rain = 0
KSM1 242350Z 08006KT 33/10 A2985 RMK A01 T03320102  RH  025%=      5-min Rain = 0
KSM1 242355Z 09006KT 33/10 A2985 RMK A01 T03340101  RH  025%=      5-min Rain = 0
KSM1 250000Z 09007KT 34/10 A2985 RMK A01 T03350098  RH  024%=      5-min Rain = 0
KSM1 250005Z 09007KT 33/10 A2985 RMK A01 T03310098  RH  025%=      5-min Rain = 0
KSM1 250010Z 10009KT 33/10 A2985 RMK A01 T03250100  RH  026%=      5-min Rain = 0
KSM1 250015Z 11012KT 32/10 A2985 RMK A01 T03200101  RH  027%=      5-min Rain = 0
KSM1 250020Z 11011KT 32/11 A2985 RMK A01 T03170111  RH  029%=      5-min Rain = 0
KSM1 250025Z 10011KT 32/11 A2986 RMK A01 T03150111  RH  029%=      5-min Rain = 0
KSM1 250030Z 09013KT 31/12 A2986 RMK A01 T03110122  RH  033%=      5-min Rain = 0
KSM1 250035Z 09013KT 30/12 A2986 RMK A01 T03040118  RH  033%=      5-min Rain = 0
KSM1 250040Z 08013KT 30/13 A2986 RMK A01 T03010127  RH  036%=      5-min Rain = 0
KSM1 250045Z 09013KT 30/14 A2986 RMK A01 T02990135  RH  038%=      5-min Rain = 0
KSM1 250050Z 09013KT 30/14 A2987 RMK A01 T02980136  RH  039%=      5-min Rain = 0
KSM1 250055Z 10013KT 30/13 A2987 RMK A01 T02990134  RH  038%=      5-min Rain = 0
KSM1 250100Z 10014KT 30/13 A2988 RMK A01 T02980126  RH  036%=      5-min Rain = 0
KSM1 250105Z 10015KT 30/12 A2988 RMK A01 T02960120  RH  035%=      5-min Rain = 0
KSM1 250110Z 09015G20KT 29/13 A2988 RMK A01 T02930130  RH  038%=      5-min Rain = 0
KSM1 250115Z 09015KT 29/15 A2989 RMK A01 T02890149  RH  044%=      5-min Rain = 0
KSM1 250120Z 09015G20KT 29/16 A2989 RMK A01 T02860162  RH  049%=      5-min Rain = 0
KSM1 250125Z 10014G21KT 29/17 A2989 RMK A01 T02850170  RH  052%=      5-min Rain = 0
KSM1 250130Z 10018G23KT 28/18 A2989 RMK A01 T02830178  RH  056%=      5-min Rain = 0
KSM1 250135Z 11015G21KT 28/18 A299 RMK A01 T02810175  RH  055%=      5-min Rain = 0
KSM1 250140Z 11015G20KT 28/17 A299 RMK A01 T02800168  RH  053%=      5-min Rain = 0
KSM1 250145Z 11014G19KT 28/16 A299 RMK A01 T02780159  RH  051%=      5-min Rain = 0
KSM1 250150Z 11011KT 28/15 A2991 RMK A01 T02760149  RH  048%=      5-min Rain = 0
KSM1 250155Z 11012KT 27/14 A2991 RMK A01 T02730139  RH  046%=      5-min Rain = 0
KSM1 250200Z 11013KT 27/14 A2991 RMK A01 T02700137  RH  046%=      5-min Rain = 0
KSM1 250205Z 10012KT 27/13 A2991 RMK A01 T02670133  RH  045%=      5-min Rain = 0
KSM1 250210Z 11012KT 27/13 A2991 RMK A01 T02660129  RH  045%=      5-min Rain = 0
KSM1 250215Z 11014G20KT 26/13 A2991 RMK A01 T02640134  RH  047%=      5-min Rain = 0
KSM1 250220Z 11013KT 26/14 A2991 RMK A01 T02620143  RH  050%=      5-min Rain = 0
KSM1 250225Z 11012KT 26/15 A2991 RMK A01 T02590146  RH  052%=      5-min Rain = 0
KSM1 250230Z 10013KT 26/16 A2991 RMK A01 T02570156  RH  056%=      5-min Rain = 0
KSM1 250235Z 11013KT 26/17 A2992 RMK A01 T02550165  RH  060%=      5-min Rain = 0
KSM1 250240Z 11013KT 25/17 A2992 RMK A01 T02540169  RH  062%=      5-min Rain = 0
KSM1 250245Z 11013KT 25/17 A2992 RMK A01 T02530172  RH  064%=      5-min Rain = 0
KSM1 250250Z 11013KT 25/18 A2992 RMK A01 T02520175  RH  066%=      5-min Rain = 0
KSM1 250255Z 12015G21KT 25/18 A2992 RMK A01 T02500178  RH  068%=      5-min Rain = 0
KSM1 250300Z 12016G21KT 25/18 A2992 RMK A01 T02500181  RH  069%=      5-min Rain = 0
KSM1 250305Z 12016KT 25/18 A2993 RMK A01 T02480180  RH  069%=      5-min Rain = 0
KSM1 250310Z 11014KT 25/18 A2993 RMK A01 T02470177  RH  068%=      5-min Rain = 0
KSM1 250315Z 11015G20KT 25/17 A2994 RMK A01 T02460174  RH  067%=      5-min Rain = 0
KSM1 250320Z 11014KT 25/17 A2994 RMK A01 T02450171  RH  067%=      5-min Rain = 0
KSM1 250325Z 11014KT 24/17 A2994 RMK A01 T02440171  RH  067%=      5-min Rain = 0
KSM1 250330Z 11016KT 24/17 A2994 RMK A01 T02430172  RH  068%=      5-min Rain = 0
KSM1 250335Z 11013KT 24/17 A2995 RMK A01 T02410173  RH  069%=      5-min Rain = 0
KSM1 250340Z 11014KT 24/17 A2995 RMK A01 T02390173  RH  070%=      5-min Rain = 0
KSM1 250345Z 11016KT 24/18 A2995 RMK A01 T02380176  RH  072%=      5-min Rain = 0
KSM1 250350Z 11014G19KT 24/18 A2995 RMK A01 T02370177  RH  073%=      5-min Rain = 0
KSM1 250355Z 10013KT 24/18 A2996 RMK A01 T02350179  RH  074%=      5-min Rain = 0
KSM1 250400Z 10014G19KT 24/18 A2997 RMK A01 T02350180  RH  075%=      5-min Rain = 0
KSM1 250405Z 11014KT 23/18 A2997 RMK A01 T02340182  RH  076%=      5-min Rain = 0
KSM1 250410Z 11016G21KT 23/18 A2997 RMK A01 T02330183  RH  077%=      5-min Rain = 0
KSM1 250415Z 12017G23KT 23/18 A2997 RMK A01 T02340183  RH  077%=      5-min Rain = 0
KSM1 250420Z 13017G22KT 23/18 A2997 RMK A01 T02330182  RH  077%=      5-min Rain = 0
KSM1 250425Z 13017KT 23/18 A2997 RMK A01 T02330176  RH  074%=      5-min Rain = 0
KSM1 250430Z 13017G22KT 23/14 A2998 RMK A01 T02330144  RH  060%=      5-min Rain = 0
KSM1 250435Z 13014G19KT 23/14 A2998 RMK A01 T02300137  RH  058%=      5-min Rain = 0
KSM1 250440Z 13013KT 23/14 A2998 RMK A01 T02280136  RH  058%=      5-min Rain = 0
KSM1 250445Z 13011G16KT 23/14 A2998 RMK A01 T02250135  RH  059%=      5-min Rain = 0
KSM1 250450Z 13012KT 22/13 A2998 RMK A01 T02240134  RH  059%=      5-min Rain = 0
KSM1 250455Z 14014KT 22/13 A2998 RMK A01 T02230132  RH  059%=      5-min Rain = 0

Page generated in 0.0131 seconds.